createdAt,value
2022-08-05T00:01:25.904Z,99967.59
2022-08-05T00:02:19.591Z,99977.61
2022-08-05T00:03:24.662Z,99905.62
2022-08-05T00:04:29.288Z,99972.16
2022-08-05T00:06:05.066Z,99972.16
2022-08-05T00:06:39.136Z,99972.16
2022-08-05T00:08:00.259Z,99967.11
2022-08-05T00:08:50.411Z,99966.52
2022-08-05T00:09:57.662Z,99966.52
2022-08-05T00:11:05.518Z,99968.84
2022-08-05T00:12:13.202Z,99964.63
2022-08-05T00:13:18.792Z,99959.62
2022-08-05T00:14:22.675Z,99963.80
2022-08-05T00:15:54.989Z,99963.80
2022-08-05T00:16:36.343Z,99962.33
2022-08-05T00:17:41.515Z,99962.33
2022-08-05T00:18:48.287Z,99957.08
2022-08-05T00:20:02.391Z,99957.08
2022-08-05T00:21:03.977Z,99943.28
2022-08-05T00:22:11.122Z,99948.28
2022-08-05T00:23:14.659Z,99948.28
2022-08-05T00:24:24.721Z,99949.34
2022-08-05T00:25:25.939Z,99949.34
2022-08-05T00:26:29.934Z,99949.12
2022-08-05T00:27:36.091Z,99945.80
2022-08-05T00:28:40.267Z,99955.42
2022-08-05T00:29:44.547Z,99955.42
2022-08-05T00:30:52.052Z,99954.36
2022-08-05T00:32:13.109Z,99956.25
2022-08-05T00:33:04.962Z,99959.59
2022-08-05T00:34:54.018Z,99959.59
2022-08-05T00:35:18.067Z,99949.54
2022-08-05T00:37:11.459Z,99949.54
2022-08-05T00:37:51.302Z,99951.86
2022-08-05T00:38:38.598Z,99953.74
2022-08-05T00:39:58.114Z,99947.86
2022-08-05T00:40:54.541Z,99944.55
2022-08-05T00:41:58.468Z,99944.55
2022-08-05T00:43:07.560Z,99944.55
2022-08-05T00:44:09.227Z,99944.55
2022-08-05T00:45:13.485Z,99938.05
2022-08-05T00:46:18.774Z,99936.98
2022-08-05T00:47:24.570Z,99940.77
2022-08-05T00:48:31.395Z,99941.17
2022-08-05T00:49:44.693Z,99938.68
2022-08-05T00:50:44.057Z,99938.68
2022-08-05T00:51:51.695Z,99939.09
2022-08-05T00:52:55.161Z,99938.25
2022-08-05T00:54:02.565Z,99938.25
2022-08-05T00:55:05.926Z,99944.75
2022-08-05T00:56:10.664Z,99937.21
2022-08-05T00:57:16.179Z,99932.18
2022-08-05T00:58:21.874Z,99932.18
2022-08-05T00:59:43.354Z,99931.16
2022-08-05T01:00:34.915Z,99923.59
2022-08-05T01:01:48.400Z,99928.02
2022-08-05T01:02:45.868Z,99928.02
2022-08-05T01:03:49.904Z,99924.23
2022-08-05T01:04:54.030Z,99930.73
2022-08-05T01:05:58.842Z,99928.02
2022-08-05T01:07:05.234Z,99929.46
2022-08-05T01:08:41.991Z,99927.80
2022-08-05T01:09:14.901Z,99924.02
2022-08-05T01:10:25.790Z,99924.87
2022-08-05T01:11:36.855Z,99927.16
2022-08-05T01:12:40.646Z,99933.66
2022-08-05T01:13:58.920Z,99933.66
2022-08-05T01:14:57.938Z,99921.09
2022-08-05T01:16:05.171Z,99921.09
2022-08-05T01:17:31.392Z,99914.63
2022-08-05T01:18:40.073Z,99919.84
2022-08-05T01:20:01.790Z,99919.84
2022-08-05T01:21:13.516Z,99920.48
2022-08-05T01:22:47.008Z,99922.13
2022-08-05T01:24:14.155Z,99922.13
2022-08-05T01:25:24.065Z,99922.36
2022-08-05T01:26:50.307Z,99922.36
2022-08-05T01:28:19.372Z,99920.28
2022-08-05T01:29:29.373Z,99923.83
2022-08-05T01:30:37.825Z,99927.38
2022-08-05T01:31:47.975Z,99928.44
2022-08-05T01:32:53.985Z,99934.30
2022-08-05T01:34:11.433Z,99934.30
2022-08-05T01:35:50.584Z,99944.09
2022-08-05T01:36:33.426Z,99944.09
2022-08-05T01:37:50.548Z,99937.22
2022-08-05T01:39:01.026Z,99937.22
2022-08-05T01:40:05.547Z,99944.10
2022-08-05T01:41:11.675Z,99940.75
2022-08-05T01:42:25.219Z,99940.75
2022-08-05T01:43:27.644Z,99934.06
2022-08-05T01:44:35.372Z,99944.94
2022-08-05T01:45:42.805Z,99944.94
2022-08-05T01:46:46.749Z,99941.17
2022-08-05T01:47:56.616Z,99941.17
2022-08-05T01:49:24.144Z,99949.33
2022-08-05T01:50:17.286Z,99947.44
2022-08-05T01:51:22.268Z,99950.16
2022-08-05T01:52:28.185Z,99951.60
2022-08-05T01:53:57.086Z,99945.14
2022-08-05T01:54:48.834Z,99948.88
2022-08-05T01:55:57.540Z,99949.94
2022-08-05T01:58:09.566Z,99949.94
2022-08-05T01:58:15.911Z,99945.75
2022-08-05T01:59:22.228Z,99945.75
2022-08-05T02:00:29.897Z,99956.42
2022-08-05T02:01:39.816Z,99956.42
2022-08-05T02:02:54.467Z,99955.79
2022-08-05T02:03:58.751Z,99950.58
2022-08-05T02:05:05.923Z,99953.30
2022-08-05T02:06:37.672Z,99951.60
2022-08-05T02:07:23.419Z,99951.60
2022-08-05T02:08:30.715Z,99957.48
2022-08-05T02:09:35.602Z,99952.88
2022-08-05T02:10:42.697Z,99959.97
2022-08-05T02:11:52.377Z,99959.97
2022-08-05T02:13:02.608Z,99949.10
2022-08-05T02:14:17.433Z,99949.10
2022-08-05T02:15:37.449Z,99951.41
2022-08-05T02:16:46.252Z,99949.13
2022-08-05T02:18:30.965Z,99949.33
2022-08-05T02:19:11.780Z,99950.59
2022-08-05T02:20:23.063Z,99952.45
2022-08-05T02:21:46.691Z,99952.45
2022-08-05T02:22:49.755Z,99951.84
2022-08-05T02:23:56.767Z,99951.84
2022-08-05T02:25:21.743Z,99943.27
2022-08-05T02:26:34.704Z,99948.70
2022-08-05T02:27:58.443Z,99943.90
2022-08-05T02:28:55.110Z,99943.90
2022-08-05T02:30:00.927Z,99954.16
2022-08-05T02:31:21.136Z,99956.45
2022-08-05T02:32:29.363Z,99954.56
2022-08-05T02:33:38.901Z,99955.84
2022-08-05T02:34:54.888Z,99961.69
2022-08-05T02:35:57.494Z,99961.69
2022-08-05T02:37:00.016Z,99956.66
2022-08-05T02:38:09.436Z,99959.61
2022-08-05T02:39:14.511Z,99959.61
2022-08-05T02:40:21.083Z,99955.83
2022-08-05T02:41:42.876Z,99960.02
2022-08-05T02:42:37.301Z,99957.09
2022-08-05T02:44:02.837Z,99967.11
2022-08-05T02:44:50.619Z,99969.84
2022-08-05T02:45:56.916Z,99969.84
2022-08-05T02:47:05.621Z,99961.07
2022-08-05T02:48:12.381Z,99965.26
2022-08-05T02:49:18.115Z,99959.59
2022-08-05T02:50:26.954Z,99954.15
2022-08-05T02:52:02.854Z,99954.15
2022-08-05T02:52:40.814Z,99952.47
2022-08-05T02:53:47.502Z,99952.47
2022-08-05T02:54:54.726Z,99960.02
2022-08-05T02:56:02.275Z,99960.68
2022-08-05T02:58:11.667Z,99956.90
2022-08-05T02:58:20.647Z,99952.92
2022-08-05T02:59:27.788Z,99958.17
2022-08-05T03:00:33.469Z,99958.77
2022-08-05T03:01:40.116Z,99961.72
2022-08-05T03:02:48.717Z,99961.72
2022-08-05T03:04:02.708Z,99962.13
2022-08-05T03:05:02.233Z,99956.48
2022-08-05T03:06:56.159Z,99959.41
2022-08-05T03:07:59.298Z,99964.42
2022-08-05T03:08:29.647Z,99964.42
2022-08-05T03:09:37.501Z,99955.23
2022-08-05T03:10:37.081Z,99963.39
2022-08-05T03:11:57.640Z,99965.45
2022-08-05T03:12:51.880Z,99960.84
2022-08-05T03:14:03.362Z,99961.47
2022-08-05T03:15:03.563Z,99964.20
2022-08-05T03:16:15.758Z,99964.20
2022-08-05T03:17:15.151Z,99964.83
2022-08-05T03:18:19.180Z,99957.93
2022-08-05T03:19:34.108Z,99960.82
2022-08-05T03:20:33.399Z,99946.16
2022-08-05T03:21:41.573Z,99955.78
2022-08-05T03:24:13.694Z,99943.20
2022-08-05T03:25:32.484Z,99947.34
2022-08-05T03:26:31.407Z,99951.72
2022-08-05T03:28:31.201Z,99945.20
2022-08-05T03:28:53.481Z,99314.75
2022-08-05T03:30:08.692Z,99949.13
2022-08-05T03:31:09.155Z,99945.75
2022-08-05T03:32:17.451Z,99948.87
2022-08-05T03:33:25.170Z,99950.95
2022-08-05T03:34:30.310Z,99950.95
2022-08-05T03:35:41.256Z,99956.34
2022-08-05T03:36:40.364Z,99950.49
2022-08-05T03:37:46.335Z,99950.49
2022-08-05T03:38:53.401Z,99954.25
2022-08-05T03:40:01.403Z,99955.94
2022-08-05T03:41:08.311Z,99946.70
2022-08-05T03:42:13.063Z,99957.60
2022-08-05T03:44:08.853Z,99957.60
2022-08-05T03:44:24.352Z,99957.16
2022-08-05T03:45:28.340Z,99957.16
2022-08-05T03:46:33.086Z,99958.67
2022-08-05T03:47:41.196Z,99960.14
2022-08-05T03:48:45.410Z,99963.94
2022-08-05T03:49:52.401Z,99963.94
2022-08-05T03:52:38.777Z,99961.20
2022-08-05T03:52:48.889Z,99972.56
2022-08-05T03:55:34.061Z,99964.63
2022-08-05T03:55:52.347Z,99964.63
2022-08-05T03:56:10.153Z,99966.53
2022-08-05T03:57:02.871Z,99966.53
2022-08-05T03:58:12.666Z,99968.02
2022-08-05T03:59:46.912Z,99969.28
2022-08-05T04:00:42.172Z,99969.48
2022-08-05T04:01:50.563Z,99963.64
2022-08-05T04:02:59.320Z,99968.02
2022-08-05T04:04:09.808Z,99961.55
2022-08-05T04:05:14.660Z,99967.62
2022-08-05T04:06:20.850Z,99970.75
2022-08-05T04:07:26.193Z,99969.52
2022-08-05T04:08:37.502Z,99972.67
2022-08-05T04:09:38.752Z,99972.88
2022-08-05T04:10:46.010Z,99970.98
2022-08-05T04:11:56.474Z,99973.70
2022-08-05T04:13:03.505Z,99958.42
2022-08-05T04:14:10.550Z,99966.59
2022-08-05T04:15:24.565Z,99966.59
2022-08-05T04:16:32.146Z,99966.98
2022-08-05T04:17:55.835Z,99966.17
2022-08-05T04:18:41.187Z,99967.23
2022-08-05T04:19:54.488Z,99967.03
2022-08-05T04:20:58.237Z,99966.20
2022-08-05T04:22:09.668Z,99971.88
2022-08-05T04:23:12.439Z,99974.38
2022-08-05T04:24:19.161Z,99960.33
2022-08-05T04:25:38.339Z,99960.33
2022-08-05T04:27:19.646Z,99968.73
2022-08-05T04:27:58.175Z,99964.51
2022-08-05T04:28:52.295Z,99965.38
2022-08-05T04:29:56.438Z,99965.38
2022-08-05T04:31:14.725Z,99965.97
2022-08-05T04:32:30.557Z,99968.09
2022-08-05T04:34:17.734Z,99963.25
2022-08-05T04:34:50.991Z,99962.22
2022-08-05T04:36:15.581Z,99967.43
2022-08-05T04:36:51.145Z,99965.77
2022-08-05T04:38:02.880Z,99965.77
2022-08-05T04:39:01.702Z,99967.23
2022-08-05T04:40:07.755Z,99961.78
2022-08-05T04:41:12.060Z,99961.78
2022-08-05T04:42:25.343Z,99968.69
2022-08-05T04:43:27.714Z,99972.67
2022-08-05T04:44:31.755Z,99970.16
2022-08-05T04:45:48.518Z,99962.22
2022-08-05T04:46:43.602Z,99962.22
2022-08-05T04:47:55.354Z,99969.95
2022-08-05T04:49:04.290Z,99975.83
2022-08-05T04:50:11.132Z,99975.40
2022-08-05T04:51:15.439Z,99970.78
2022-08-05T04:52:19.451Z,99970.78
2022-08-05T04:53:33.560Z,99978.75
2022-08-05T04:54:33.974Z,99978.75
2022-08-05T04:56:34.017Z,99990.28
2022-08-05T04:56:58.923Z,99990.28
2022-08-05T04:58:02.165Z,99992.38
2022-08-05T04:59:24.223Z,99983.38
2022-08-05T05:00:12.876Z,99982.73
2022-08-05T05:02:08.386Z,99982.08
2022-08-05T05:02:41.229Z,99982.08
2022-08-05T05:03:41.754Z,99995.45
2022-08-05T05:04:43.830Z,99991.27
2022-08-05T05:06:40.505Z,99993.36
2022-08-05T05:06:52.097Z,99993.36
2022-08-05T05:08:01.773Z,99987.05
2022-08-05T05:09:05.532Z,99987.05
2022-08-05T05:10:14.131Z,99994.82
2022-08-05T05:11:19.376Z,99994.82
2022-08-05T05:12:30.279Z,99993.75
2022-08-05T05:13:43.004Z,99993.75
2022-08-05T05:14:50.501Z,99990.00
2022-08-05T05:15:57.847Z,99988.78
2022-08-05T05:18:09.836Z,99990.23
2022-08-05T05:18:52.311Z,99984.16
2022-08-05T05:19:19.352Z,99990.23
2022-08-05T05:20:23.304Z,99993.80
2022-08-05T05:21:29.125Z,99986.02
2022-08-05T05:22:40.671Z,99986.02
2022-08-05T05:24:03.907Z,99989.57
2022-08-05T05:24:59.041Z,99989.57
2022-08-05T05:25:54.063Z,99987.91
2022-08-05T05:27:01.126Z,99993.38
2022-08-05T05:28:05.733Z,99983.71
2022-08-05T05:29:17.424Z,99983.71
2022-08-05T05:30:31.509Z,99992.72
2022-08-05T05:32:37.468Z,99997.32
2022-08-05T05:33:59.203Z,100006.33
2022-08-05T05:34:47.863Z,100006.33
2022-08-05T05:35:53.562Z,100007.98
2022-08-05T05:36:57.939Z,100007.98
2022-08-05T05:38:02.939Z,100010.52
2022-08-05T05:39:09.880Z,100012.42
2022-08-05T05:40:17.794Z,99998.80
2022-08-05T05:41:22.810Z,100015.18
2022-08-05T05:42:27.965Z,100006.77
2022-08-05T05:43:58.098Z,99999.66
2022-08-05T05:44:44.394Z,100002.58
2022-08-05T05:45:48.218Z,100002.58
2022-08-05T05:46:51.067Z,100004.64
2022-08-05T05:48:06.502Z,100003.37
2022-08-05T05:49:22.836Z,100003.13
2022-08-05T05:50:19.825Z,100000.58
2022-08-05T05:51:24.280Z,100000.14
2022-08-05T05:52:33.045Z,100000.14
2022-08-05T05:53:54.387Z,100000.14
2022-08-05T05:54:50.078Z,100005.33
2022-08-05T05:55:52.413Z,99994.81
2022-08-05T05:56:53.049Z,100002.99
2022-08-05T05:57:58.475Z,100001.52
2022-08-05T05:59:06.940Z,100001.52
2022-08-05T06:00:18.857Z,99997.91
2022-08-05T06:01:23.568Z,99997.91
2022-08-05T06:02:37.366Z,99998.73
2022-08-05T06:03:54.084Z,99999.98
2022-08-05T06:04:42.901Z,99999.98
2022-08-05T06:05:54.195Z,100002.27
2022-08-05T06:06:55.727Z,99996.98
2022-08-05T06:08:07.864Z,99996.98
2022-08-05T06:09:17.052Z,100005.20
2022-08-05T06:10:15.301Z,100005.20
2022-08-05T06:11:19.742Z,100002.47
2022-08-05T06:12:23.920Z,100011.92
2022-08-05T06:13:32.238Z,100011.92
2022-08-05T06:14:40.231Z,100007.81
2022-08-05T06:16:27.320Z,100014.91
2022-08-05T06:16:48.547Z,100014.91
2022-08-05T06:17:54.611Z,100012.86
2022-08-05T06:18:59.912Z,100004.00
2022-08-05T06:20:06.283Z,100004.00
2022-08-05T06:21:16.642Z,100010.03
2022-08-05T06:22:27.204Z,100010.03
2022-08-05T06:23:43.589Z,100009.17
2022-08-05T06:24:48.230Z,100009.17
2022-08-05T06:26:13.008Z,100016.28
2022-08-05T06:26:58.715Z,100014.00
2022-08-05T06:28:12.676Z,100014.00
2022-08-05T06:29:42.948Z,100013.80
2022-08-05T06:30:21.665Z,100013.37
2022-08-05T06:31:38.212Z,100013.37
2022-08-05T06:32:44.999Z,100021.56
2022-08-05T06:34:07.838Z,100023.72
2022-08-05T06:34:53.318Z,100026.65
2022-08-05T06:36:07.829Z,100013.02
2022-08-05T06:37:06.644Z,100013.02
2022-08-05T06:38:12.265Z,100017.82
2022-08-05T06:39:18.383Z,100017.82
2022-08-05T06:40:32.407Z,100024.11
2022-08-05T06:41:37.404Z,100018.57
2022-08-05T06:42:44.701Z,100018.57
2022-08-05T06:43:51.753Z,100015.40
2022-08-05T06:44:58.103Z,100020.65
2022-08-05T06:46:06.753Z,100022.10
2022-08-05T06:47:10.286Z,100030.47
2022-08-05T06:48:50.451Z,100026.05
2022-08-05T06:50:00.466Z,100025.63
2022-08-05T06:50:35.863Z,100025.63
2022-08-05T06:51:45.584Z,100018.48
2022-08-05T06:53:03.565Z,100024.83
2022-08-05T06:53:58.157Z,100020.17
2022-08-05T06:55:02.511Z,100023.87
2022-08-05T06:56:06.935Z,100017.52
2022-08-05T06:57:57.403Z,100017.52
2022-08-05T06:58:34.754Z,100020.22
2022-08-05T06:59:27.014Z,100020.22
2022-08-05T07:00:31.681Z,100024.40
2022-08-05T07:01:40.873Z,100024.40
2022-08-05T07:03:09.954Z,100019.11
2022-08-05T07:04:14.276Z,100023.13
2022-08-05T07:05:18.904Z,100023.87
2022-08-05T07:06:25.618Z,100034.14
2022-08-05T07:09:58.291Z,100026.33
2022-08-05T07:11:02.066Z,100026.33
2022-08-05T07:12:06.459Z,100032.03
2022-08-05T07:13:10.826Z,100032.48
2022-08-05T07:14:20.407Z,100025.91
2022-08-05T07:15:34.049Z,100025.91
2022-08-05T07:17:56.863Z,100033.23
2022-08-05T07:18:01.975Z,100024.01
2022-08-05T07:18:52.545Z,100024.64
2022-08-05T07:21:04.670Z,100024.80
2022-08-05T07:22:12.658Z,100020.78
2022-08-05T07:23:26.089Z,100023.76
2022-08-05T07:24:19.358Z,100022.31
2022-08-05T07:25:55.332Z,100022.31
2022-08-05T07:26:35.949Z,100023.76
2022-08-05T07:27:57.196Z,100024.96
2022-08-05T07:28:50.389Z,100024.96
2022-08-05T07:30:27.292Z,100022.50
2022-08-05T07:31:02.376Z,100023.05
2022-08-05T07:32:09.159Z,100023.05
2022-08-05T07:33:16.865Z,100023.33
2022-08-05T07:34:21.521Z,100020.29
2022-08-05T07:36:03.792Z,100017.24
2022-08-05T07:36:34.657Z,100025.38
2022-08-05T07:37:45.896Z,100025.38
2022-08-05T07:40:32.665Z,100034.34
2022-08-05T07:42:12.961Z,100030.75
2022-08-05T07:43:52.789Z,100023.81
2022-08-05T07:44:58.504Z,100023.81
2022-08-05T07:46:05.950Z,100033.63
2022-08-05T07:47:11.783Z,100029.38
2022-08-05T07:49:00.829Z,100031.97
2022-08-05T07:49:25.814Z,100027.55
2022-08-05T07:50:32.614Z,100033.16
2022-08-05T07:51:40.601Z,100033.16
2022-08-05T07:52:44.858Z,100029.88
2022-08-05T07:53:53.760Z,100037.65
2022-08-05T07:54:58.240Z,100037.78
2022-08-05T07:56:06.330Z,100039.61
2022-08-05T07:57:22.640Z,100038.53
2022-08-05T07:58:17.785Z,100039.14
2022-08-05T07:59:21.931Z,100050.66
2022-08-05T08:00:28.797Z,100050.66
2022-08-05T08:01:33.191Z,100041.88
2022-08-05T08:03:14.322Z,100041.88
2022-08-05T08:03:45.150Z,100039.83
2022-08-05T08:04:49.842Z,100036.87
2022-08-05T08:05:54.148Z,100032.58
2022-08-05T08:06:58.353Z,100032.58
2022-08-05T08:08:04.171Z,100033.05
2022-08-05T08:09:25.037Z,100039.97
2022-08-05T08:10:22.663Z,100041.27
2022-08-05T08:11:27.623Z,100051.61
2022-08-05T08:12:49.358Z,100044.95
2022-08-05T08:14:00.768Z,100050.86
2022-08-05T08:15:14.033Z,100050.86
2022-08-05T08:16:35.119Z,100048.53
2022-08-05T08:17:19.396Z,100048.53
2022-08-05T08:18:25.318Z,100050.71
2022-08-05T08:20:22.816Z,100057.23
2022-08-05T08:20:44.067Z,100049.98
2022-08-05T08:21:45.696Z,100055.06
2022-08-05T08:22:54.028Z,100053.41
2022-08-05T08:24:04.672Z,100061.97
2022-08-05T08:25:27.206Z,100061.97
2022-08-05T08:26:27.064Z,100056.52
2022-08-05T08:27:44.992Z,100060.31
2022-08-05T08:28:59.094Z,100062.83
2022-08-05T08:30:05.854Z,100062.83
2022-08-05T08:30:49.901Z,100068.28
2022-08-05T08:31:54.765Z,100075.67
2022-08-05T08:33:02.598Z,100064.61
2022-08-05T08:34:06.205Z,100060.79
2022-08-05T08:35:13.624Z,100071.04
2022-08-05T08:36:38.521Z,100071.04
2022-08-05T08:37:28.236Z,100069.85
2022-08-05T08:38:35.730Z,100061.48
2022-08-05T08:39:38.223Z,100068.52
2022-08-05T08:40:51.496Z,100064.59
2022-08-05T08:42:02.086Z,100069.50
2022-08-05T08:44:54.643Z,100060.08
2022-08-05T08:45:22.850Z,100060.08
2022-08-05T08:45:26.293Z,100062.62
2022-08-05T08:46:25.965Z,100063.93
2022-08-05T08:48:07.338Z,100063.93
2022-08-05T08:48:42.947Z,100066.52
2022-08-05T08:50:06.197Z,100063.95
2022-08-05T08:51:22.427Z,100067.06
2022-08-05T08:52:15.502Z,100067.06
2022-08-05T08:53:22.482Z,100059.92
2022-08-05T08:54:30.176Z,100066.12
2022-08-05T08:56:02.740Z,100066.12
2022-08-05T08:56:47.787Z,100060.08
2022-08-05T08:57:58.290Z,100060.08
2022-08-05T08:58:57.418Z,100066.88
2022-08-05T09:00:05.848Z,100062.89
2022-08-05T09:01:16.355Z,100060.27
2022-08-05T09:02:19.451Z,100059.88
2022-08-05T09:03:40.327Z,100065.62
2022-08-05T09:04:58.338Z,100053.55
2022-08-05T09:06:07.524Z,100053.55
2022-08-05T09:06:55.449Z,100061.52
2022-08-05T09:08:01.950Z,100065.97
2022-08-05T09:09:07.932Z,100072.92
2022-08-05T09:10:15.373Z,100072.92
2022-08-05T09:11:51.322Z,100067.77
2022-08-05T09:12:27.874Z,100067.77
2022-08-05T09:14:00.910Z,100064.09
2022-08-05T09:14:56.545Z,100062.78
2022-08-05T09:15:47.987Z,100063.61
2022-08-05T09:16:52.512Z,100057.78
2022-08-05T09:17:56.758Z,100064.80
2022-08-05T09:19:00.871Z,100067.28
2022-08-05T09:20:11.356Z,100067.28
2022-08-05T09:21:20.867Z,100066.61
2022-08-05T09:22:31.189Z,100063.75
2022-08-05T09:23:37.415Z,100066.12
2022-08-05T09:24:37.211Z,100066.45
2022-08-05T09:26:02.122Z,100066.45
2022-08-05T09:26:58.784Z,100070.78
2022-08-05T09:28:21.093Z,100071.23
2022-08-05T09:29:30.880Z,100065.62
2022-08-05T09:30:29.704Z,100068.33
2022-08-05T09:32:40.125Z,100071.78
2022-08-05T09:32:51.993Z,100074.63
2022-08-05T09:33:54.549Z,100074.63
2022-08-05T09:34:58.754Z,100075.30
2022-08-05T09:36:11.602Z,100071.05
2022-08-05T09:38:12.580Z,100071.05
2022-08-05T09:38:31.226Z,100081.17
2022-08-05T09:39:41.298Z,100087.64
2022-08-05T09:40:52.690Z,100054.40
2022-08-05T09:42:05.474Z,100054.40
2022-08-05T09:43:40.605Z,100072.94
2022-08-05T09:44:51.261Z,100080.06
2022-08-05T09:46:06.857Z,100080.06
2022-08-05T09:47:16.065Z,100075.50
2022-08-05T09:48:32.465Z,100070.73
2022-08-05T09:49:40.354Z,100078.24
2022-08-05T09:50:44.116Z,100078.04
2022-08-05T09:51:48.998Z,100090.28
2022-08-05T09:52:55.662Z,100075.58
2022-08-05T09:54:01.850Z,100079.52
2022-08-05T09:55:58.678Z,100078.32
2022-08-05T09:56:30.190Z,100089.94
2022-08-05T09:57:43.197Z,100089.11
2022-08-05T09:59:05.490Z,100084.79
2022-08-05T10:00:25.636Z,100084.79
2022-08-05T10:01:31.812Z,100081.81
2022-08-05T10:02:38.833Z,100082.48
2022-08-05T10:03:58.619Z,100077.37
2022-08-05T10:05:09.597Z,100083.40
2022-08-05T10:06:18.847Z,100083.40
2022-08-05T10:08:10.987Z,100075.14
2022-08-05T10:08:38.311Z,100075.14
2022-08-05T10:09:46.626Z,100081.91
2022-08-05T10:10:55.051Z,100081.91
2022-08-05T10:12:30.337Z,100081.02
2022-08-05T10:13:45.697Z,100084.91
2022-08-05T10:14:37.929Z,100084.91
2022-08-05T10:15:43.656Z,100076.86
2022-08-05T10:16:52.760Z,100076.86
2022-08-05T10:18:14.631Z,100082.22
2022-08-05T10:19:23.553Z,100082.22
2022-08-05T10:20:31.315Z,100082.22
2022-08-05T10:21:40.495Z,100082.22
2022-08-05T10:22:42.924Z,100088.59
2022-08-05T10:23:55.991Z,100077.69
2022-08-05T10:24:55.948Z,100081.20
2022-08-05T10:26:02.851Z,100081.20
2022-08-05T10:27:09.210Z,100093.34
2022-08-05T10:28:19.531Z,100084.09
2022-08-05T10:30:06.369Z,100083.17
2022-08-05T10:32:48.094Z,100086.01
2022-08-05T10:32:51.847Z,100092.66
2022-08-05T10:32:53.762Z,100086.01
2022-08-05T10:33:54.071Z,100081.86
2022-08-05T10:35:00.927Z,99685.48
2022-08-05T10:36:04.564Z,99685.48
2022-08-05T10:37:09.339Z,100075.89
2022-08-05T10:38:15.880Z,100089.72
2022-08-05T10:39:25.078Z,100083.72
2022-08-05T10:40:48.350Z,100083.72
2022-08-05T10:42:18.435Z,100088.00
2022-08-05T10:43:47.641Z,100084.56
2022-08-05T10:44:56.760Z,100084.56
2022-08-05T10:46:06.415Z,100070.58
2022-08-05T10:47:26.665Z,100083.23
2022-08-05T10:48:39.631Z,100080.87
2022-08-05T10:50:32.863Z,100080.87
2022-08-05T10:51:21.686Z,100080.60
2022-08-05T10:52:19.233Z,100080.60
2022-08-05T10:53:42.703Z,100078.13
2022-08-05T10:54:56.566Z,100074.70
2022-08-05T10:56:21.281Z,100076.72
2022-08-05T10:57:18.401Z,100066.46
2022-08-05T10:58:22.869Z,100068.77
2022-08-05T11:00:04.283Z,100068.77
2022-08-05T11:00:42.222Z,100071.20
2022-08-05T11:01:55.128Z,100064.37
2022-08-05T11:03:23.041Z,100065.27
2022-08-05T11:04:15.498Z,100065.27
2022-08-05T11:05:20.050Z,100064.48
2022-08-05T11:06:30.829Z,100061.66
2022-08-05T11:07:33.316Z,100061.94
2022-08-05T11:08:37.211Z,100061.94
2022-08-05T11:09:47.799Z,100060.02
2022-08-05T11:11:01.462Z,100059.50
2022-08-05T11:11:59.396Z,100065.52
2022-08-05T11:13:06.542Z,100065.52
2022-08-05T11:14:12.814Z,100067.80
2022-08-05T11:15:21.218Z,100067.80
2022-08-05T11:16:47.523Z,100070.82
2022-08-05T11:18:00.349Z,100058.84
2022-08-05T11:18:47.057Z,100058.84
2022-08-05T11:20:17.484Z,100064.66
2022-08-05T11:20:56.883Z,100061.33
2022-08-05T11:22:04.024Z,100059.73
2022-08-05T11:23:33.600Z,100059.73
2022-08-05T11:24:32.974Z,100062.63
2022-08-05T11:26:05.698Z,100057.64
2022-08-05T11:26:49.618Z,100064.15
2022-08-05T11:27:51.664Z,100063.49
2022-08-05T11:28:56.777Z,100063.49
2022-08-05T11:30:01.668Z,100060.23
2022-08-05T11:31:11.722Z,100057.48
2022-08-05T11:32:29.562Z,100058.47
2022-08-05T11:33:46.139Z,100062.81
2022-08-05T11:34:51.502Z,100055.72
2022-08-05T11:36:07.944Z,100055.72
2022-08-05T11:38:28.730Z,100053.34
2022-08-05T11:38:30.043Z,100058.64
2022-08-05T11:39:55.276Z,100050.72
2022-08-05T11:41:12.874Z,100050.72
2022-08-05T11:42:08.309Z,100058.09
2022-08-05T11:43:21.449Z,100051.87
2022-08-05T11:44:40.528Z,100059.64
2022-08-05T11:46:27.345Z,100060.02
2022-08-05T11:47:10.329Z,100057.19
2022-08-05T11:47:59.460Z,100057.19
2022-08-05T11:49:06.278Z,100056.88
2022-08-05T11:50:14.719Z,100057.11
2022-08-05T11:51:44.115Z,100055.38
2022-08-05T11:52:31.344Z,100057.11
2022-08-05T11:53:40.992Z,100057.11
2022-08-05T11:54:48.505Z,100057.09
2022-08-05T11:55:59.901Z,100061.30
2022-08-05T11:57:08.234Z,100061.30
2022-08-05T11:58:12.172Z,100047.91
2022-08-05T11:59:21.178Z,100047.91
2022-08-05T12:00:32.152Z,100045.45
2022-08-05T12:01:44.125Z,100040.91
2022-08-05T12:02:47.435Z,100049.16
2022-08-05T12:04:06.025Z,100041.18
2022-08-05T12:05:08.033Z,100043.66
2022-08-05T12:06:12.211Z,100046.47
2022-08-05T12:07:18.111Z,100046.47
2022-08-05T12:08:23.906Z,100041.42
2022-08-05T12:09:53.007Z,100041.88
2022-08-05T12:10:45.853Z,100049.04
2022-08-05T12:11:50.378Z,100043.44
2022-08-05T12:12:59.529Z,100043.44
2022-08-05T12:14:05.912Z,100043.72
2022-08-05T12:15:20.831Z,100043.72
2022-08-05T12:16:38.281Z,100045.58
2022-08-05T12:18:02.984Z,100038.15
2022-08-05T12:18:52.446Z,100038.15
2022-08-05T12:20:25.770Z,100041.07
2022-08-05T12:21:15.218Z,100038.15
2022-08-05T12:22:25.133Z,100026.39
2022-08-05T12:23:31.179Z,100032.81
2022-08-05T12:24:49.637Z,100032.81
2022-08-05T12:25:57.994Z,100017.57
2022-08-05T12:27:09.841Z,100024.20
2022-08-05T12:28:08.397Z,100024.20
2022-08-05T12:29:22.812Z,100024.63
2022-08-05T12:30:29.056Z,100024.63
2022-08-05T12:31:42.456Z,100017.27
2022-08-05T12:32:50.441Z,100016.34
2022-08-05T12:33:55.580Z,100016.34
2022-08-05T12:35:01.572Z,100014.20
2022-08-05T12:37:21.580Z,100009.33
2022-08-05T12:37:48.334Z,100009.33
2022-08-05T12:38:31.455Z,99998.67
2022-08-05T12:39:38.687Z,99998.67
2022-08-05T12:40:44.217Z,100009.50
2022-08-05T12:41:48.703Z,100011.78
2022-08-05T12:44:11.696Z,100004.05
2022-08-05T12:45:19.801Z,100012.39
2022-08-05T12:46:15.129Z,100011.78
2022-08-05T12:46:32.737Z,100008.70
2022-08-05T12:47:37.912Z,99999.83
2022-08-05T12:48:45.243Z,99999.83
2022-08-05T12:50:03.896Z,100002.19
2022-08-05T12:51:21.621Z,100006.05
2022-08-05T12:52:25.344Z,99999.13
2022-08-05T12:53:37.042Z,99999.13
2022-08-05T12:54:39.803Z,100004.64
2022-08-05T12:55:45.460Z,100008.80
2022-08-05T12:57:02.180Z,100001.64
2022-08-05T12:58:49.932Z,100001.64
2022-08-05T12:59:46.679Z,100007.69
2022-08-05T13:02:03.965Z,100004.70
2022-08-05T13:02:16.662Z,100003.71
2022-08-05T13:02:56.544Z,99999.09
2022-08-05T13:04:09.614Z,99999.09
2022-08-05T13:05:15.136Z,99868.77
2022-08-05T13:06:19.605Z,99868.77
2022-08-05T13:07:59.981Z,99990.81
2022-08-05T13:08:35.072Z,99990.81
2022-08-05T13:09:57.034Z,99996.16
2022-08-05T13:11:01.902Z,100003.94
2022-08-05T13:12:16.064Z,99996.06
2022-08-05T13:14:06.089Z,99996.06
2022-08-05T13:14:36.189Z,99996.31
2022-08-05T13:15:42.145Z,99990.27
2022-08-05T13:16:49.227Z,99990.27
2022-08-05T13:17:56.419Z,100001.88
2022-08-05T13:19:02.597Z,99996.69